Orsk, Russia
Current Conditions -  °F | °C
As of 1:00 AM on Friday 19 Dec 2014 (Local Time) from UWOR Reporting Station
Clear Clear  
Wind Chill:   Ceiling: Unl
Heat Index:   Visibility: 6mi
Dew Point:   Wind: 2mph
Humidity: 85%   Direction: NA
Pressure: 30.33"   Gusts: NA
Location:  51.21°N, 58.63°E
Report Text: UWOR 182000Z VRB01MPS CAVOK M16/M18 Q1027 25420155 NOSIG RMKQFE746/0995
Loading
Personal Weather Stations






























Interactive Weather Map New forecast layout! Learn more

10-Day Weather Forecast

Advertisements
Track Severe Weather on mobile